createdAt,value
2023-01-11T00:00:28.285Z,86.07
2023-01-11T00:03:01.953Z,86.55
2023-01-11T00:05:24.809Z,86.47
2023-01-11T00:07:47.301Z,86.15
2023-01-11T00:10:11.005Z,85.91
2023-01-11T00:12:33.682Z,86.46
2023-01-11T00:14:56.539Z,86.20
2023-01-11T00:17:19.249Z,85.99
2023-01-11T00:19:42.144Z,85.95
2023-01-11T00:22:04.837Z,85.93
2023-01-11T00:24:27.294Z,85.93
2023-01-11T00:26:49.790Z,85.50
2023-01-11T00:29:12.455Z,85.60
2023-01-11T00:31:35.046Z,86.14
2023-01-11T00:33:57.636Z,86.04
2023-01-11T00:36:20.165Z,85.97
2023-01-11T00:38:53.726Z,85.88
2023-01-11T00:41:35.873Z,86.12
2023-01-11T00:44:17.342Z,86.10
2023-01-11T00:46:58.656Z,86.09
2023-01-11T00:49:21.801Z,86.03
2023-01-11T00:51:44.373Z,85.98
2023-01-11T00:54:06.947Z,85.77
2023-01-11T00:56:29.530Z,85.68
2023-01-11T00:58:52.471Z,85.78
2023-01-11T01:01:15.115Z,85.73
2023-01-11T01:03:37.857Z,85.73
2023-01-11T01:06:00.548Z,85.82
2023-01-11T01:08:23.258Z,85.91
2023-01-11T01:10:45.754Z,85.59
2023-01-11T01:13:30.299Z,85.87
2023-01-11T01:15:57.768Z,85.80
2023-01-11T01:18:22.314Z,86.02
2023-01-11T01:20:44.841Z,85.83
2023-01-11T01:23:07.394Z,85.51
2023-01-11T01:25:29.866Z,85.90
2023-01-11T01:27:52.409Z,86.27
2023-01-11T01:30:15.237Z,86.12
2023-01-11T01:32:37.926Z,86.08
2023-01-11T01:35:00.576Z,86.48
2023-01-11T01:37:23.033Z,86.41
2023-01-11T01:39:45.654Z,86.22
2023-01-11T01:42:19.878Z,86.47
2023-01-11T01:44:48.361Z,86.48
2023-01-11T01:47:11.511Z,86.11
2023-01-11T01:49:34.111Z,86.33
2023-01-11T01:51:57.904Z,86.35
2023-01-11T01:54:25.035Z,86.29
2023-01-11T01:56:51.995Z,86.05
2023-01-11T01:59:17.430Z,86.20
2023-01-11T02:01:49.900Z,86.14
2023-01-11T02:04:37.334Z,86.22
2023-01-11T02:07:04.229Z,86.62
2023-01-11T02:09:51.908Z,87.11
2023-01-11T02:12:16.278Z,86.97
2023-01-11T02:14:40.842Z,86.73
2023-01-11T02:17:03.748Z,86.54
2023-01-11T02:19:54.302Z,86.74
2023-01-11T02:22:41.630Z,86.79
2023-01-11T02:25:45.385Z,86.54
2023-01-11T02:28:26.382Z,86.83
2023-01-11T02:30:54.959Z,86.83
2023-01-11T02:33:39.728Z,86.64
2023-01-11T02:36:08.078Z,86.86
2023-01-11T02:38:43.566Z,86.73
2023-01-11T02:41:17.101Z,86.84
2023-01-11T02:44:18.870Z,86.92
2023-01-11T02:46:55.387Z,87.05
2023-01-11T02:49:35.851Z,86.75
2023-01-11T02:52:10.303Z,86.92
2023-01-11T02:54:34.034Z,87.02
2023-01-11T02:57:00.524Z,86.90
2023-01-11T02:59:29.985Z,87.23
2023-01-11T03:01:55.784Z,86.83
2023-01-11T03:04:37.565Z,86.74
2023-01-11T03:07:27.242Z,86.74
2023-01-11T03:10:08.472Z,87.01
2023-01-11T03:13:18.365Z,87.12
2023-01-11T03:15:46.733Z,87.00
2023-01-11T03:18:18.172Z,86.82
2023-01-11T03:21:04.766Z,87.03
2023-01-11T03:24:05.750Z,86.87
2023-01-11T03:26:43.462Z,86.58
2023-01-11T03:29:33.332Z,86.77
2023-01-11T03:32:07.912Z,86.97
2023-01-11T03:34:33.767Z,87.08
2023-01-11T03:37:21.331Z,87.04
2023-01-11T03:40:00.556Z,87.36
2023-01-11T03:42:24.734Z,87.02
2023-01-11T03:44:53.525Z,87.15
2023-01-11T03:47:21.417Z,87.12
2023-01-11T03:50:03.977Z,87.08
2023-01-11T03:52:31.793Z,87.37
2023-01-11T03:54:56.037Z,87.28
2023-01-11T03:57:25.718Z,87.17
2023-01-11T03:59:49.817Z,87.36
2023-01-11T04:02:41.889Z,87.38
2023-01-11T04:05:05.613Z,87.58
2023-01-11T04:07:28.698Z,87.99
2023-01-11T04:09:51.347Z,87.73
2023-01-11T04:12:13.894Z,87.17
2023-01-11T04:14:36.798Z,87.64
2023-01-11T04:16:59.404Z,87.73
2023-01-11T04:19:22.316Z,87.54
2023-01-11T04:21:45.148Z,87.68
2023-01-11T04:24:07.977Z,87.74
2023-01-11T04:26:30.551Z,87.85
2023-01-11T04:28:54.372Z,87.87
2023-01-11T04:31:17.355Z,87.97
2023-01-11T04:33:40.378Z,87.83
2023-01-11T04:36:07.832Z,87.46
2023-01-11T04:38:31.818Z,87.64
2023-01-11T04:41:14.746Z,87.90
2023-01-11T04:43:37.441Z,88.03
2023-01-11T04:46:00.075Z,87.94
2023-01-11T04:48:22.590Z,87.58
2023-01-11T04:50:48.871Z,88.03
2023-01-11T04:53:11.420Z,88.00
2023-01-11T04:55:33.935Z,87.52
2023-01-11T04:57:56.431Z,87.55
2023-01-11T05:00:19.228Z,87.66
2023-01-11T05:02:42.341Z,87.65
2023-01-11T05:05:06.208Z,87.94
2023-01-11T05:07:29.304Z,87.79
2023-01-11T05:09:51.953Z,87.74
2023-01-11T05:12:14.755Z,87.60
2023-01-11T05:14:37.359Z,87.67
2023-01-11T05:16:59.956Z,87.58
2023-01-11T05:19:22.743Z,87.54
2023-01-11T05:21:45.437Z,87.12
2023-01-11T05:24:12.808Z,87.35
2023-01-11T05:26:37.882Z,87.64
2023-01-11T05:29:03.680Z,87.28
2023-01-11T05:31:26.701Z,87.23
2023-01-11T05:33:49.615Z,86.97
2023-01-11T05:36:14.812Z,86.82
2023-01-11T05:38:37.391Z,87.02
2023-01-11T05:41:05.565Z,87.31
2023-01-11T05:43:29.867Z,87.33
2023-01-11T05:45:52.694Z,87.13
2023-01-11T05:48:15.600Z,87.32
2023-01-11T05:50:38.284Z,88.01
2023-01-11T05:53:00.770Z,87.81
2023-01-11T05:55:23.359Z,87.76
2023-01-11T05:57:46.910Z,87.74
2023-01-11T06:00:11.361Z,87.75
2023-01-11T06:02:37.412Z,87.50
2023-01-11T06:05:00.362Z,87.61
2023-01-11T06:07:25.126Z,87.72
2023-01-11T06:09:47.960Z,87.83
2023-01-11T06:12:30.976Z,87.34
2023-01-11T06:15:14.351Z,87.40
2023-01-11T06:17:36.941Z,87.42
2023-01-11T06:19:59.962Z,87.26
2023-01-11T06:22:22.703Z,87.42
2023-01-11T06:24:45.612Z,87.28
2023-01-11T06:27:08.213Z,87.27
2023-01-11T06:29:33.087Z,87.32
2023-01-11T06:31:55.889Z,87.35
2023-01-11T06:34:18.626Z,87.38
2023-01-11T06:36:41.375Z,87.54
2023-01-11T06:39:04.693Z,87.48
2023-01-11T06:41:28.849Z,87.29
2023-01-11T06:43:51.663Z,87.61
2023-01-11T06:46:15.929Z,87.89
2023-01-11T06:48:39.592Z,87.68
2023-01-11T06:51:02.650Z,87.51
2023-01-11T06:53:28.815Z,87.45
2023-01-11T06:55:54.177Z,87.24
2023-01-11T06:58:17.586Z,87.35
2023-01-11T07:00:41.789Z,87.38
2023-01-11T07:03:06.510Z,87.13
2023-01-11T07:05:36.474Z,87.01
2023-01-11T07:08:00.089Z,86.72
2023-01-11T07:10:23.751Z,87.27
2023-01-11T07:12:47.269Z,86.61
2023-01-11T07:15:12.412Z,86.29
2023-01-11T07:17:37.529Z,86.08
2023-01-11T07:20:02.274Z,85.80
2023-01-11T07:22:26.815Z,85.66
2023-01-11T07:24:51.160Z,85.43
2023-01-11T07:27:14.837Z,85.36
2023-01-11T07:29:38.150Z,85.25
2023-01-11T07:32:01.392Z,85.09
2023-01-11T07:34:24.276Z,85.32
2023-01-11T07:36:47.081Z,84.69
2023-01-11T07:39:10.252Z,84.83
2023-01-11T07:41:51.341Z,84.58
2023-01-11T07:44:14.119Z,84.62
2023-01-11T07:46:36.954Z,84.33
2023-01-11T07:48:59.920Z,84.39
2023-01-11T07:51:24.428Z,84.26
2023-01-11T07:53:47.499Z,83.90
2023-01-11T07:56:10.353Z,84.72
2023-01-11T07:58:33.183Z,84.81
2023-01-11T08:00:59.405Z,85.07
2023-01-11T08:03:22.556Z,85.26
2023-01-11T08:05:51.396Z,85.03
2023-01-11T08:08:14.831Z,84.88
2023-01-11T08:10:39.190Z,85.05
2023-01-11T08:13:22.992Z,85.12
2023-01-11T08:15:46.253Z,84.79
2023-01-11T08:18:11.853Z,85.19
2023-01-11T08:20:35.572Z,85.25
2023-01-11T08:23:04.711Z,84.76
2023-01-11T08:25:27.651Z,84.10
2023-01-11T08:27:50.536Z,83.82
2023-01-11T08:30:13.927Z,83.44
2023-01-11T08:32:36.656Z,82.73
2023-01-11T08:34:59.375Z,82.94
2023-01-11T08:37:22.069Z,83.08
2023-01-11T08:39:44.930Z,82.75
2023-01-11T08:42:07.749Z,82.54
2023-01-11T08:44:34.473Z,82.49
2023-01-11T08:46:57.464Z,82.47
2023-01-11T08:49:20.230Z,82.15
2023-01-11T08:51:43.117Z,82.45
2023-01-11T08:54:09.611Z,82.66
2023-01-11T08:56:32.244Z,82.77
2023-01-11T08:58:55.145Z,82.07
2023-01-11T09:01:18.635Z,81.89
2023-01-11T09:03:41.468Z,82.39
2023-01-11T09:06:04.699Z,82.66
2023-01-11T09:08:28.715Z,81.99
2023-01-11T09:10:51.836Z,82.07
2023-01-11T09:13:14.647Z,81.77
2023-01-11T09:15:37.378Z,82.03
2023-01-11T09:18:00.067Z,81.50
2023-01-11T09:20:23.335Z,81.74
2023-01-11T09:22:52.926Z,81.44
2023-01-11T09:25:17.966Z,80.70
2023-01-11T09:27:49.081Z,80.09
2023-01-11T09:30:14.376Z,80.07
2023-01-11T09:32:41.639Z,80.01
2023-01-11T09:35:05.345Z,80.21
2023-01-11T09:37:51.518Z,80.76
2023-01-11T09:40:20.809Z,79.95
2023-01-11T09:42:46.282Z,79.43
2023-01-11T09:45:27.557Z,79.77
2023-01-11T09:48:28.597Z,79.80
2023-01-11T09:50:51.767Z,79.10
2023-01-11T09:53:49.623Z,79.03
2023-01-11T09:56:15.598Z,79.28
2023-01-11T09:59:05.577Z,78.81
2023-01-11T10:01:38.969Z,78.07
2023-01-11T10:04:22.048Z,78.26
2023-01-11T10:07:01.189Z,78.52
2023-01-11T10:18:28.984Z,78.52
2023-01-11T10:22:04.622Z,77.26
2023-01-11T10:24:27.378Z,77.26
2023-01-11T10:26:53.574Z,77.04
2023-01-11T10:29:53.960Z,77.07
2023-01-11T10:32:49.908Z,77.06
2023-01-11T10:35:41.861Z,76.49
2023-01-11T10:38:14.264Z,76.71
2023-01-11T10:41:14.593Z,76.45
2023-01-11T10:43:46.009Z,75.93
2023-01-11T10:46:20.491Z,75.85
2023-01-11T10:48:45.271Z,75.86
2023-01-11T10:51:37.230Z,76.18
2023-01-11T10:54:12.535Z,75.82
2023-01-11T10:57:02.906Z,75.86
2023-01-11T10:59:37.972Z,75.42
2023-01-11T11:02:15.609Z,74.47
2023-01-11T11:05:05.241Z,74.09
2023-01-11T11:07:36.694Z,73.35
2023-01-11T11:10:31.698Z,73.39
2023-01-11T11:13:01.603Z,73.39
2023-01-11T11:15:31.965Z,73.66
2023-01-11T11:17:55.227Z,73.71
2023-01-11T11:20:21.834Z,73.50
2023-01-11T11:22:45.212Z,72.94
2023-01-11T11:25:14.549Z,73.32
2023-01-11T11:27:41.651Z,72.49
2023-01-11T11:30:05.217Z,72.32
2023-01-11T11:32:33.553Z,72.73
2023-01-11T11:34:57.419Z,73.17
2023-01-11T11:37:23.835Z,73.08
2023-01-11T11:39:48.992Z,72.70
2023-01-11T11:42:17.541Z,73.22
2023-01-11T11:44:40.331Z,73.33
2023-01-11T11:47:05.692Z,72.52
2023-01-11T11:49:36.655Z,72.45
2023-01-11T11:52:01.828Z,71.49
2023-01-11T11:54:27.872Z,70.71
2023-01-11T11:56:53.847Z,71.07
2023-01-11T11:59:20.671Z,71.46
2023-01-11T12:01:47.290Z,71.06
2023-01-11T12:04:19.722Z,70.75
2023-01-11T12:06:44.295Z,70.60
2023-01-11T12:09:13.730Z,70.76
2023-01-11T12:11:42.290Z,70.88
2023-01-11T12:14:11.170Z,71.15
2023-01-11T12:16:42.238Z,71.86
2023-01-11T12:19:28.508Z,71.09
2023-01-11T12:21:51.924Z,71.44
2023-01-11T12:24:19.708Z,71.50
2023-01-11T12:27:13.681Z,71.16
2023-01-11T12:29:51.947Z,71.00
2023-01-11T12:32:45.782Z,71.58
2023-01-11T12:35:35.746Z,70.50
2023-01-11T12:38:07.818Z,70.13
2023-01-11T12:40:48.389Z,70.34
2023-01-11T12:43:10.985Z,70.00
2023-01-11T12:46:17.920Z,70.41
2023-01-11T12:48:59.163Z,71.12
2023-01-11T12:51:39.760Z,71.10
2023-01-11T12:54:21.309Z,71.18
2023-01-11T12:57:11.065Z,71.35
2023-01-11T13:00:07.603Z,71.56
2023-01-11T13:02:43.878Z,71.07
2023-01-11T13:05:18.427Z,70.83
2023-01-11T13:07:51.201Z,70.49
2023-01-11T13:10:36.380Z,71.10
2023-01-11T13:13:09.134Z,70.98
2023-01-11T13:15:42.359Z,71.06
2023-01-11T13:18:23.645Z,71.48
2023-01-11T13:21:01.697Z,71.74
2023-01-11T13:23:49.107Z,72.50
2023-01-11T13:26:43.957Z,71.95
2023-01-11T13:29:17.496Z,71.49
2023-01-11T13:31:42.374Z,70.21
2023-01-11T13:34:14.320Z,70.04
2023-01-11T13:36:43.142Z,69.96
2023-01-11T13:39:42.676Z,69.93
2023-01-11T13:42:21.436Z,69.58
2023-01-11T13:44:56.649Z,70.07
2023-01-11T13:47:52.921Z,70.52
2023-01-11T13:50:28.475Z,70.51
2023-01-11T13:52:57.015Z,71.54
2023-01-11T13:55:27.519Z,72.03
2023-01-11T13:58:02.865Z,71.54
2023-01-11T14:00:40.932Z,71.40
2023-01-11T14:03:15.188Z,70.91
2023-01-11T14:05:50.330Z,71.57
2023-01-11T14:08:37.784Z,71.71
2023-01-11T14:11:13.141Z,72.48
2023-01-11T14:14:00.264Z,72.57
2023-01-11T14:16:37.572Z,72.66
2023-01-11T14:19:05.835Z,72.36
2023-01-11T14:21:58.902Z,72.35
2023-01-11T14:24:23.703Z,72.08
2023-01-11T14:27:05.077Z,72.32
2023-01-11T14:29:36.922Z,72.47
2023-01-11T14:32:23.980Z,72.63
2023-01-11T14:34:49.507Z,73.12
2023-01-11T14:37:23.618Z,73.54
2023-01-11T14:40:05.803Z,74.44
2023-01-11T14:42:47.583Z,74.55
2023-01-11T14:45:46.957Z,75.47
2023-01-11T14:48:18.854Z,75.69
2023-01-11T14:50:59.972Z,75.37
2023-01-11T14:53:29.904Z,76.20
2023-01-11T14:55:53.085Z,76.82
2023-01-11T14:58:21.380Z,77.03
2023-01-11T15:01:01.935Z,77.13
2023-01-11T15:03:35.013Z,76.93
2023-01-11T15:06:16.935Z,77.15
2023-01-11T15:08:51.117Z,77.40
2023-01-11T15:11:28.862Z,77.59
2023-01-11T15:14:27.486Z,78.19
2023-01-11T15:17:11.835Z,77.96
2023-01-11T15:19:38.445Z,78.57
2023-01-11T15:22:03.799Z,79.21
2023-01-11T15:24:32.428Z,79.31
2023-01-11T15:26:57.398Z,79.40
2023-01-11T15:29:45.857Z,79.54
2023-01-11T15:32:25.233Z,79.55
2023-01-11T15:34:49.092Z,80.13
2023-01-11T15:37:11.627Z,81.16
2023-01-11T15:40:11.505Z,81.67
2023-01-11T15:42:55.283Z,82.07
2023-01-11T15:46:14.321Z,81.81
2023-01-11T15:49:21.788Z,81.40
2023-01-11T15:52:28.877Z,81.77
2023-01-11T15:55:28.434Z,81.88
2023-01-11T15:58:25.561Z,81.66
2023-01-11T16:01:16.146Z,81.13
2023-01-11T16:03:49.770Z,81.43
2023-01-11T16:06:30.602Z,81.09
2023-01-11T16:08:56.709Z,81.60
2023-01-11T16:11:50.690Z,82.33
2023-01-11T16:14:59.523Z,82.93
2023-01-11T16:17:24.485Z,83.08
2023-01-11T16:19:53.021Z,82.75
2023-01-11T16:22:20.633Z,82.50
2023-01-11T16:24:46.518Z,82.29
2023-01-11T16:27:27.327Z,82.54
2023-01-11T16:29:51.897Z,83.16
2023-01-11T16:32:27.225Z,84.00
2023-01-11T16:34:52.196Z,83.61
2023-01-11T16:37:31.628Z,83.30
2023-01-11T16:40:04.321Z,82.89
2023-01-11T16:42:32.309Z,82.94
2023-01-11T16:45:04.125Z,82.91
2023-01-11T16:47:27.422Z,82.35
2023-01-11T16:50:11.983Z,81.99
2023-01-11T16:52:57.646Z,82.07
2023-01-11T16:55:52.290Z,82.09
2023-01-11T16:58:30.084Z,81.94
2023-01-11T17:01:11.314Z,81.90
2023-01-11T17:03:36.549Z,82.69
2023-01-11T17:06:22.907Z,83.17
2023-01-11T17:08:50.419Z,82.88
2023-01-11T17:11:19.124Z,83.18
2023-01-11T17:14:18.636Z,83.15
2023-01-11T17:16:46.666Z,83.04
2023-01-11T17:19:21.956Z,83.26
2023-01-11T17:22:01.503Z,83.64
2023-01-11T17:24:26.299Z,83.59
2023-01-11T17:26:55.812Z,83.58
2023-01-11T17:29:25.640Z,83.75
2023-01-11T17:31:49.032Z,83.60
2023-01-11T17:34:26.772Z,84.14
2023-01-11T17:36:50.432Z,84.23
2023-01-11T17:39:32.628Z,84.40
2023-01-11T17:42:16.437Z,84.57
2023-01-11T17:45:20.842Z,84.76
2023-01-11T17:47:52.670Z,84.53
2023-01-11T17:50:23.260Z,84.67
2023-01-11T17:52:54.911Z,84.59
2023-01-11T17:55:23.602Z,83.81
2023-01-11T17:58:28.659Z,84.27
2023-01-11T18:01:22.308Z,84.86
2023-01-11T18:03:47.930Z,84.41
2023-01-11T18:06:22.871Z,84.85
2023-01-11T18:08:48.184Z,84.71
2023-01-11T18:11:11.369Z,84.64
2023-01-11T18:13:35.010Z,84.07
2023-01-11T18:15:58.374Z,83.93
2023-01-11T18:18:41.781Z,84.28
2023-01-11T18:21:24.475Z,83.99
2023-01-11T18:23:47.322Z,84.42
2023-01-11T18:26:29.683Z,84.49
2023-01-11T18:28:52.408Z,84.44
2023-01-11T18:31:15.644Z,84.89
2023-01-11T18:33:40.585Z,84.91
2023-01-11T18:36:04.435Z,85.28
2023-01-11T18:38:32.897Z,85.01
2023-01-11T18:40:57.632Z,85.81
2023-01-11T18:43:26.099Z,86.35
2023-01-11T18:45:48.759Z,86.41
2023-01-11T18:48:12.813Z,86.33
2023-01-11T18:50:35.638Z,86.40
2023-01-11T18:52:58.333Z,86.07
2023-01-11T18:55:20.969Z,85.90
2023-01-11T18:57:43.644Z,86.10
2023-01-11T19:00:07.283Z,85.82
2023-01-11T19:02:43.296Z,87.01
2023-01-11T19:05:09.967Z,87.30
2023-01-11T19:07:32.908Z,86.69
2023-01-11T19:09:56.066Z,86.32
2023-01-11T19:12:18.866Z,86.97
2023-01-11T19:14:41.957Z,87.72
2023-01-11T19:17:04.727Z,87.59
2023-01-11T19:19:27.805Z,87.53
2023-01-11T19:21:50.694Z,87.15
2023-01-11T19:24:13.806Z,86.83
2023-01-11T19:26:36.719Z,86.49
2023-01-11T19:28:59.846Z,86.42
2023-01-11T19:31:22.907Z,86.44
2023-01-11T19:33:45.883Z,86.16
2023-01-11T19:36:09.680Z,86.14
2023-01-11T19:38:33.931Z,86.10
2023-01-11T19:41:06.832Z,85.92
2023-01-11T19:43:30.004Z,85.56
2023-01-11T19:45:57.329Z,85.01
2023-01-11T19:48:20.044Z,84.69
2023-01-11T19:50:42.844Z,85.09
2023-01-11T19:53:05.747Z,84.91
2023-01-11T19:55:28.690Z,84.70
2023-01-11T19:57:51.486Z,84.64
2023-01-11T20:00:16.139Z,84.66
2023-01-11T20:02:39.379Z,84.30
2023-01-11T20:05:02.370Z,84.44
2023-01-11T20:07:25.023Z,84.73
2023-01-11T20:09:48.278Z,84.63
2023-01-11T20:12:12.557Z,85.14
2023-01-11T20:14:35.527Z,85.40
2023-01-11T20:16:58.382Z,86.14
2023-01-11T20:19:21.168Z,86.47
2023-01-11T20:21:44.195Z,86.40
2023-01-11T20:24:06.980Z,86.75
2023-01-11T20:26:34.049Z,87.46
2023-01-11T20:28:57.744Z,87.10
2023-01-11T20:31:21.696Z,86.55
2023-01-11T20:33:45.572Z,86.36
2023-01-11T20:36:17.221Z,86.60
2023-01-11T20:38:41.737Z,86.89
2023-01-11T20:41:36.444Z,86.91
2023-01-11T20:43:59.359Z,87.17
2023-01-11T20:46:22.335Z,87.45
2023-01-11T20:48:48.147Z,87.16
2023-01-11T20:51:11.055Z,87.21
2023-01-11T20:53:33.739Z,87.82
2023-01-11T20:55:56.651Z,87.79
2023-01-11T20:58:19.379Z,88.16
2023-01-11T21:00:42.247Z,88.22
2023-01-11T21:03:04.929Z,88.61
2023-01-11T21:05:27.598Z,88.31
2023-01-11T21:07:53.439Z,88.34
2023-01-11T21:10:16.436Z,88.45
2023-01-11T21:15:00.537Z,88.69
2023-01-11T21:17:25.361Z,89.60
2023-01-11T21:19:48.129Z,89.79
2023-01-11T21:22:10.880Z,89.45
2023-01-11T21:24:33.487Z,89.46
2023-01-11T21:26:56.179Z,89.04
2023-01-11T21:29:19.544Z,88.48
2023-01-11T21:31:42.429Z,88.77
2023-01-11T21:34:05.594Z,88.95
2023-01-11T21:36:30.410Z,89.25
2023-01-11T21:38:54.552Z,89.54
2023-01-11T21:41:40.629Z,89.36
2023-01-11T21:44:03.909Z,88.72
2023-01-11T21:46:26.438Z,88.33
2023-01-11T21:48:49.162Z,88.26
2023-01-11T21:51:12.253Z,88.36
2023-01-11T21:53:35.147Z,87.71
2023-01-11T21:56:06.083Z,87.68
2023-01-11T21:58:28.893Z,88.03
2023-01-11T22:00:51.456Z,87.86
2023-01-11T22:03:14.028Z,88.17
2023-01-11T22:05:36.799Z,88.28
2023-01-11T22:07:59.531Z,88.06
2023-01-11T22:10:22.432Z,87.89
2023-01-11T22:12:44.995Z,87.52
2023-01-11T22:15:08.566Z,87.59
2023-01-11T22:17:31.568Z,87.22
2023-01-11T22:19:54.451Z,87.39
2023-01-11T22:22:17.068Z,87.64
2023-01-11T22:24:39.719Z,88.49
2023-01-11T22:27:02.507Z,88.43
2023-01-11T22:29:25.225Z,88.00
2023-01-11T22:31:55.195Z,88.96
2023-01-11T22:34:18.543Z,88.97
2023-01-11T22:36:42.407Z,89.30
2023-01-11T22:39:05.382Z,89.29
2023-01-11T22:41:28.184Z,89.94
2023-01-11T22:43:51.346Z,90.05
2023-01-11T22:46:25.775Z,89.23
2023-01-11T22:48:49.021Z,88.86
2023-01-11T22:51:12.064Z,88.82
2023-01-11T22:53:43.256Z,88.75
2023-01-11T22:56:06.627Z,88.65
2023-01-11T22:58:29.550Z,88.41
2023-01-11T23:00:52.131Z,88.27
2023-01-11T23:03:15.538Z,88.63
2023-01-11T23:05:44.508Z,88.98
2023-01-11T23:08:08.406Z,89.19
2023-01-11T23:10:31.272Z,89.74
2023-01-11T23:13:12.157Z,89.47
2023-01-11T23:15:39.239Z,89.45
2023-01-11T23:18:01.994Z,89.28
2023-01-11T23:20:26.108Z,89.07
2023-01-11T23:22:51.591Z,88.69
2023-01-11T23:25:14.246Z,88.22
2023-01-11T23:27:36.827Z,88.46
2023-01-11T23:29:59.562Z,88.45
2023-01-11T23:32:22.515Z,88.43
2023-01-11T23:34:45.674Z,88.41
2023-01-11T23:37:08.918Z,88.55
2023-01-11T23:39:32.913Z,88.73
2023-01-11T23:42:14.206Z,88.28
2023-01-11T23:44:36.866Z,88.71
2023-01-11T23:47:18.165Z,88.51
2023-01-11T23:49:43.082Z,88.62
2023-01-11T23:52:06.524Z,89.34
2023-01-11T23:54:31.512Z,89.45
2023-01-11T23:56:54.488Z,89.27
2023-01-11T23:59:17.277Z,89.28
